sensor_id;sensor_type;location;lat;lon;timestamp;pressure;altitude;pressure_sealevel;temperature;humidity
57234;BME280;43090;52.604;13.318;2024-01-07T00:07:05;101213.03;;;-2.35;84.97
57234;BME280;43090;52.604;13.318;2024-01-07T00:10:07;101202.38;;;-2.19;85.58
57234;BME280;43090;52.604;13.318;2024-01-07T00:12:35;101209.53;;;-2.33;85.10
57234;BME280;43090;52.604;13.318;2024-01-07T00:15:08;101208.81;;;-2.49;82.85
57234;BME280;43090;52.604;13.318;2024-01-07T00:17:59;101227.00;;;-2.32;82.12
57234;BME280;43090;52.604;13.318;2024-01-07T00:27:51;101260.97;;;-2.20;84.50
57234;BME280;43090;52.604;13.318;2024-01-07T00:30:22;101270.69;;;-2.28;80.48
57234;BME280;43090;52.604;13.318;2024-01-07T00:32:48;101257.81;;;-2.56;80.66
57234;BME280;43090;52.604;13.318;2024-01-07T00:35:17;101259.47;;;-2.47;81.30
57234;BME280;43090;52.604;13.318;2024-01-07T00:37:53;101233.34;;;-2.58;80.77
57234;BME280;43090;52.604;13.318;2024-01-07T00:40:37;101246.34;;;-2.44;80.83
57234;BME280;43090;52.604;13.318;2024-01-07T00:43:06;101245.69;;;-2.68;80.80
57234;BME280;43090;52.604;13.318;2024-01-07T00:45:47;101273.50;;;-2.53;80.40
57234;BME280;43090;52.604;13.318;2024-01-07T00:48:14;101283.09;;;-2.51;80.93
57234;BME280;43090;52.604;13.318;2024-01-07T00:50:42;101258.81;;;-2.73;79.86
57234;BME280;43090;52.604;13.318;2024-01-07T00:53:09;101298.00;;;-2.54;79.91
57234;BME280;43090;52.604;13.318;2024-01-07T00:55:35;101306.75;;;-2.54;81.04
57234;BME280;43090;52.604;13.318;2024-01-07T00:58:02;101298.13;;;-2.73;81.16
57234;BME280;43090;52.604;13.318;2024-01-07T01:00:34;101297.38;;;-2.89;80.16
57234;BME280;43090;52.604;13.318;2024-01-07T01:03:01;101302.47;;;-2.69;80.18
57234;BME280;43090;52.604;13.318;2024-01-07T01:05:28;101282.53;;;-2.93;78.88
57234;BME280;43090;52.604;13.318;2024-01-07T01:07:54;101324.31;;;-2.66;80.03
57234;BME280;43090;52.604;13.318;2024-01-07T01:10:21;101333.91;;;-2.65;79.64
57234;BME280;43090;52.604;13.318;2024-01-07T01:12:47;101315.75;;;-2.93;80.16
57234;BME280;43090;52.604;13.318;2024-01-07T01:15:14;101313.13;;;-2.96;79.75
57234;BME280;43090;52.604;13.318;2024-01-07T01:17:46;101318.41;;;-3.06;79.93
57234;BME280;43090;52.604;13.318;2024-01-07T01:20:22;101333.13;;;-2.80;80.20
57234;BME280;43090;52.604;13.318;2024-01-07T01:22:49;101322.81;;;-3.08;79.24
57234;BME280;43090;52.604;13.318;2024-01-07T01:25:15;101329.72;;;-2.94;80.34
57234;BME280;43090;52.604;13.318;2024-01-07T01:27:42;101331.59;;;-3.13;79.67
57234;BME280;43090;52.604;13.318;2024-01-07T01:30:09;101345.44;;;-2.94;79.82
57234;BME280;43090;52.604;13.318;2024-01-07T01:32:36;101352.53;;;-3.10;79.77
57234;BME280;43090;52.604;13.318;2024-01-07T01:35:04;101339.34;;;-2.95;80.34
57234;BME280;43090;52.604;13.318;2024-01-07T01:37:34;101339.22;;;-2.75;80.59
57234;BME280;43090;52.604;13.318;2024-01-07T01:40:04;101363.91;;;-3.22;80.26
57234;BME280;43090;52.604;13.318;2024-01-07T01:42:31;101360.34;;;-3.06;80.43
57234;BME280;43090;52.604;13.318;2024-01-07T01:44:57;101354.25;;;-3.12;80.23
57234;BME280;43090;52.604;13.318;2024-01-07T01:47:31;101371.78;;;-3.22;80.82
57234;BME280;43090;52.604;13.318;2024-01-07T01:49:58;101343.88;;;-3.34;81.58
57234;BME280;43090;52.604;13.318;2024-01-07T01:52:28;101330.81;;;-3.36;80.37
57234;BME280;43090;52.604;13.318;2024-01-07T01:54:55;101359.53;;;-3.23;81.28
57234;BME280;43090;52.604;13.318;2024-01-07T01:57:42;101376.91;;;-3.01;81.18
57234;BME280;43090;52.604;13.318;2024-01-07T02:00:19;101345.59;;;-3.28;81.48
57234;BME280;43090;52.604;13.318;2024-01-07T02:02:49;101375.28;;;-3.20;80.09
57234;BME280;43090;52.604;13.318;2024-01-07T02:05:15;101351.69;;;-3.17;80.79
57234;BME280;43090;52.604;13.318;2024-01-07T02:07:42;101342.06;;;-3.13;82.15
57234;BME280;43090;52.604;13.318;2024-01-07T02:10:09;101363.88;;;-3.13;81.85
57234;BME280;43090;52.604;13.318;2024-01-07T02:12:35;101374.38;;;-3.19;80.34
57234;BME280;43090;52.604;13.318;2024-01-07T02:15:02;101366.56;;;-3.28;80.08
57234;BME280;43090;52.604;13.318;2024-01-07T02:17:32;101373.56;;;-3.37;81.47
57234;BME280;43090;52.604;13.318;2024-01-07T02:20:00;101364.84;;;-3.36;80.40
57234;BME280;43090;52.604;13.318;2024-01-07T02:22:27;101370.91;;;-3.27;80.83
57234;BME280;43090;52.604;13.318;2024-01-07T02:24:53;101350.00;;;-3.32;79.01
57234;BME280;43090;52.604;13.318;2024-01-07T02:27:20;101389.31;;;-3.41;80.49
57234;BME280;43090;52.604;13.318;2024-01-07T02:29:46;101377.00;;;-3.27;81.22
57234;BME280;43090;52.604;13.318;2024-01-07T02:46:11;101390.28;;;-3.90;85.65
57234;BME280;43090;52.604;13.318;2024-01-07T02:48:52;101388.50;;;-3.82;84.74
57234;BME280;43090;52.604;13.318;2024-01-07T02:51:18;101382.38;;;-3.67;83.56
57234;BME280;43090;52.604;13.318;2024-01-07T02:53:45;101376.25;;;-3.71;82.14
57234;BME280;43090;52.604;13.318;2024-01-07T02:56:12;101396.28;;;-3.39;83.04
57234;BME280;43090;52.604;13.318;2024-01-07T02:58:38;101410.25;;;-3.38;84.43
57234;BME280;43090;52.604;13.318;2024-01-07T03:01:08;101406.78;;;-3.60;83.76
57234;BME280;43090;52.604;13.318;2024-01-07T03:03:36;101397.22;;;-3.66;81.82
57234;BME280;43090;52.604;13.318;2024-01-07T03:06:03;101400.66;;;-3.44;81.51
57234;BME280;43090;52.604;13.318;2024-01-07T03:08:29;101423.34;;;-3.49;80.79
57234;BME280;43090;52.604;13.318;2024-01-07T03:10:56;101408.50;;;-3.45;81.91
57234;BME280;43090;52.604;13.318;2024-01-07T03:13:22;101413.72;;;-3.31;80.62
57234;BME280;43090;52.604;13.318;2024-01-07T03:15:49;101412.03;;;-3.56;81.28
57234;BME280;43090;52.604;13.318;2024-01-07T03:18:16;101417.22;;;-3.49;81.30
57234;BME280;43090;52.604;13.318;2024-01-07T03:20:43;101418.13;;;-3.71;81.39
57234;BME280;43090;52.604;13.318;2024-01-07T03:23:09;101417.28;;;-3.70;81.04
57234;BME280;43090;52.604;13.318;2024-01-07T03:25:36;101430.34;;;-3.54;81.30
57234;BME280;43090;52.604;13.318;2024-01-07T03:28:02;101405.94;;;-3.73;82.16
57234;BME280;43090;52.604;13.318;2024-01-07T03:30:29;101435.59;;;-3.70;82.56
57234;BME280;43090;52.604;13.318;2024-01-07T03:32:55;101437.34;;;-3.69;82.26
57234;BME280;43090;52.604;13.318;2024-01-07T03:35:22;101432.94;;;-3.42;81.64
57234;BME280;43090;52.604;13.318;2024-01-07T03:37:50;101439.91;;;-3.45;81.80
57234;BME280;43090;52.604;13.318;2024-01-07T03:40:17;101431.22;;;-3.64;81.02
57234;BME280;43090;52.604;13.318;2024-01-07T03:42:43;101439.09;;;-3.86;80.70
57234;BME280;43090;52.604;13.318;2024-01-07T03:45:10;101453.06;;;-3.62;81.65
57234;BME280;43090;52.604;13.318;2024-01-07T03:47:36;101460.03;;;-3.58;82.04
57234;BME280;43090;52.604;13.318;2024-01-07T03:50:03;101448.66;;;-3.57;81.75
57234;BME280;43090;52.604;13.318;2024-01-07T03:52:30;101424.25;;;-3.76;82.30
57234;BME280;43090;52.604;13.318;2024-01-07T03:54:56;101433.88;;;-3.77;83.16
57234;BME280;43090;52.604;13.318;2024-01-07T03:57:23;101458.25;;;-3.41;82.33
57234;BME280;43090;52.604;13.318;2024-01-07T03:59:49;101460.91;;;-3.67;81.51
57234;BME280;43090;52.604;13.318;2024-01-07T04:02:16;101474.84;;;-3.60;81.69
57234;BME280;43090;52.604;13.318;2024-01-07T04:04:43;101474.84;;;-3.60;81.06
57234;BME280;43090;52.604;13.318;2024-01-07T04:07:09;101457.41;;;-3.72;83.35
57234;BME280;43090;52.604;13.318;2024-01-07T04:09:36;101487.06;;;-3.61;82.61
57234;BME280;43090;52.604;13.318;2024-01-07T04:12:03;101480.09;;;-3.54;82.08
57234;BME280;43090;52.604;13.318;2024-01-07T04:14:36;101459.16;;;-3.80;82.75
57234;BME280;43090;52.604;13.318;2024-01-07T04:17:11;101445.22;;;-3.81;82.65
57234;BME280;43090;52.604;13.318;2024-01-07T04:19:46;101488.81;;;-3.55;81.77
57234;BME280;43090;52.604;13.318;2024-01-07T04:22:44;101500.16;;;-3.41;81.14
57234;BME280;43090;52.604;13.318;2024-01-07T04:25:16;101470.50;;;-3.49;82.32
57234;BME280;43090;52.604;13.318;2024-01-07T04:27:43;101457.38;;;-3.54;81.57
57234;BME280;43090;52.604;13.318;2024-01-07T04:30:10;101467.00;;;-3.46;80.74
57234;BME280;43090;52.604;13.318;2024-01-07T04:32:36;101477.44;;;-3.42;80.48
57234;BME280;43090;52.604;13.318;2024-01-07T04:35:04;101501.88;;;-3.30;81.02
57234;BME280;43090;52.604;13.318;2024-01-07T04:37:30;101488.78;;;-3.38;80.43
57234;BME280;43090;52.604;13.318;2024-01-07T04:39:57;101510.59;;;-3.27;81.18
57234;BME280;43090;52.604;13.318;2024-01-07T04:42:24;101497.53;;;-3.41;82.01
57234;BME280;43090;52.604;13.318;2024-01-07T04:44:51;101494.91;;;-3.35;81.83
57234;BME280;43090;52.604;13.318;2024-01-07T04:47:30;101503.59;;;-3.17;81.50
57234;BME280;43090;52.604;13.318;2024-01-07T04:49:57;101498.41;;;-3.49;81.30
57234;BME280;43090;52.604;13.318;2024-01-07T04:52:25;101503.59;;;-3.23;80.66
57234;BME280;43090;52.604;13.318;2024-01-07T04:54:52;101489.66;;;-3.35;79.19
57234;BME280;43090;52.604;13.318;2024-01-07T04:57:19;101501.88;;;-3.43;79.57
57234;BME280;43090;52.604;13.318;2024-01-07T04:59:55;101527.19;;;-3.25;80.44
57234;BME280;43090;52.604;13.318;2024-01-07T05:02:25;101491.34;;;-3.15;80.01
57234;BME280;43090;52.604;13.318;2024-01-07T05:04:52;101490.50;;;-3.22;80.40
57234;BME280;43090;52.604;13.318;2024-01-07T05:07:18;101518.44;;;-3.18;80.06
57234;BME280;43090;52.604;13.318;2024-01-07T05:09:45;101489.66;;;-3.55;80.75
57234;BME280;43090;52.604;13.318;2024-01-07T05:12:11;101511.44;;;-3.14;80.50
57234;BME280;43090;52.604;13.318;2024-01-07T05:14:38;101501.84;;;-3.09;80.62
57234;BME280;43090;52.604;13.318;2024-01-07T05:17:05;101513.19;;;-3.11;81.98
57234;BME280;43090;52.604;13.318;2024-01-07T05:19:34;101511.44;;;-3.08;80.36
57234;BME280;43090;52.604;13.318;2024-01-07T05:22:01;101503.59;;;-3.15;80.78
57234;BME280;43090;52.604;13.318;2024-01-07T05:24:27;101503.56;;;-3.03;78.91
57234;BME280;43090;52.604;13.318;2024-01-07T05:26:56;101506.19;;;-3.05;78.28
57234;BME280;43090;52.604;13.318;2024-01-07T05:29:23;101525.28;;;-2.70;78.54
57234;BME280;43090;52.604;13.318;2024-01-07T05:31:49;101513.09;;;-2.76;79.87
57234;BME280;43090;52.604;13.318;2024-01-07T05:34:16;101539.28;;;-2.68;78.27
57234;BME280;43090;52.604;13.318;2024-01-07T05:36:43;101523.59;;;-2.85;78.38
57234;BME280;43090;52.604;13.318;2024-01-07T05:39:10;101554.13;;;-2.69;77.16
57234;BME280;43090;52.604;13.318;2024-01-07T05:41:37;101510.53;;;-3.01;77.46
57234;BME280;43090;52.604;13.318;2024-01-07T05:44:07;101550.56;;;-2.49;79.38
57234;BME280;43090;52.604;13.318;2024-01-07T05:46:38;101518.38;;;-2.93;77.24
57234;BME280;43090;52.604;13.318;2024-01-07T05:49:06;101549.78;;;-2.70;76.77
57234;BME280;43090;52.604;13.318;2024-01-07T05:51:32;101552.38;;;-2.73;76.17
57234;BME280;43090;52.604;13.318;2024-01-07T05:54:05;101532.31;;;-2.77;77.47
57234;BME280;43090;52.604;13.318;2024-01-07T05:56:40;101552.38;;;-2.60;77.34
57234;BME280;43090;52.604;13.318;2024-01-07T05:59:07;101541.00;;;-2.59;76.95
57234;BME280;43090;52.604;13.318;2024-01-07T06:01:34;101565.53;;;-2.85;76.81
57234;BME280;43090;52.604;13.318;2024-01-07T06:04:01;101557.59;;;-2.57;77.16
57234;BME280;43090;52.604;13.318;2024-01-07T06:06:28;101564.59;;;-2.69;79.59
57234;BME280;43090;52.604;13.318;2024-01-07T06:08:55;101559.28;;;-2.44;78.28
57234;BME280;43090;52.604;13.318;2024-01-07T06:11:21;101578.50;;;-2.39;77.15
57234;BME280;43090;52.604;13.318;2024-01-07T06:13:48;101575.09;;;-2.56;79.34
57234;BME280;43090;52.604;13.318;2024-01-07T06:16:15;101584.69;;;-2.52;79.76
57234;BME280;43090;52.604;13.318;2024-01-07T06:18:41;101577.72;;;-2.64;79.71
57234;BME280;43090;52.604;13.318;2024-01-07T06:21:08;101569.75;;;-2.35;78.65
57234;BME280;43090;52.604;13.318;2024-01-07T06:23:35;101588.09;;;-2.33;79.65
57234;BME280;43090;52.604;13.318;2024-01-07T06:26:05;101572.47;;;-2.58;79.41
57234;BME280;43090;52.604;13.318;2024-01-07T06:28:32;101590.81;;;-2.50;80.92
57234;BME280;43090;52.604;13.318;2024-01-07T06:31:20;101561.97;;;-2.55;79.52
57234;BME280;43090;52.604;13.318;2024-01-07T06:33:47;101577.63;;;-2.38;80.74
57234;BME280;43090;52.604;13.318;2024-01-07T06:36:14;101571.50;;;-2.40;81.43
57234;BME280;43090;52.604;13.318;2024-01-07T06:38:40;101584.59;;;-2.27;82.57
57234;BME280;43090;52.604;13.318;2024-01-07T06:41:07;101597.69;;;-2.26;81.34
57234;BME280;43090;52.604;13.318;2024-01-07T06:43:33;101578.56;;;-2.49;81.73
57234;BME280;43090;52.604;13.318;2024-01-07T06:46:00;101605.63;;;-2.44;81.24
57234;BME280;43090;52.604;13.318;2024-01-07T06:48:26;101582.97;;;-2.59;82.24
57234;BME280;43090;52.604;13.318;2024-01-07T06:50:53;101588.16;;;-2.45;81.40
57234;BME280;43090;52.604;13.318;2024-01-07T06:53:20;101607.31;;;-2.25;82.80
57234;BME280;43090;52.604;13.318;2024-01-07T06:55:47;101603.97;;;-2.76;83.36
57234;BME280;43090;52.604;13.318;2024-01-07T06:58:14;101608.28;;;-2.46;82.62
57234;BME280;43090;52.604;13.318;2024-01-07T07:00:40;101627.44;;;-2.27;81.95
57234;BME280;43090;52.604;13.318;2024-01-07T07:03:07;101618.69;;;-2.26;83.13
57234;BME280;43090;52.604;13.318;2024-01-07T07:05:35;101615.13;;;-2.11;82.86
57234;BME280;43090;52.604;13.318;2024-01-07T07:08:02;101616.97;;;-2.35;82.41
57234;BME280;43090;52.604;13.318;2024-01-07T07:10:52;101627.41;;;-2.21;81.23
57234;BME280;43090;52.604;13.318;2024-01-07T07:13:18;101614.34;;;-2.30;83.70
57234;BME280;43090;52.604;13.318;2024-01-07T07:15:45;101594.34;;;-2.70;81.13
57234;BME280;43090;52.604;13.318;2024-01-07T07:18:11;101632.72;;;-2.31;79.11
57234;BME280;43090;52.604;13.318;2024-01-07T07:20:38;101603.81;;;-2.33;80.30
57234;BME280;43090;52.604;13.318;2024-01-07T07:23:05;101608.19;;;-2.27;80.00
57234;BME280;43090;52.604;13.318;2024-01-07T07:25:37;101618.69;;;-2.27;79.60
57234;BME280;43090;52.604;13.318;2024-01-07T07:28:11;101618.72;;;-2.37;78.09
57234;BME280;43090;52.604;13.318;2024-01-07T07:30:48;101652.78;;;-2.23;77.50
57234;BME280;43090;52.604;13.318;2024-01-07T07:33:18;101644.09;;;-2.46;76.17
57234;BME280;43090;52.604;13.318;2024-01-07T07:36:00;101612.69;;;-2.60;77.23
57234;BME280;43090;52.604;13.318;2024-01-07T07:39:08;101620.56;;;-2.62;77.09
57234;BME280;43090;52.604;13.318;2024-01-07T07:41:35;101644.06;;;-2.32;77.00
57234;BME280;43090;52.604;13.318;2024-01-07T07:44:02;101667.63;;;-2.26;76.48
57234;BME280;43090;52.604;13.318;2024-01-07T07:46:29;101670.38;;;-2.62;77.01
57234;BME280;43090;52.604;13.318;2024-01-07T07:48:56;101663.34;;;-2.58;78.09
57234;BME280;43090;52.604;13.318;2024-01-07T07:51:23;101649.38;;;-2.51;77.70
57234;BME280;43090;52.604;13.318;2024-01-07T07:53:50;101657.16;;;-2.22;76.39
57234;BME280;43090;52.604;13.318;2024-01-07T07:59:45;101665.00;;;-2.26;76.37
57234;BME280;43090;52.604;13.318;2024-01-07T08:02:24;101650.19;;;-2.41;76.90
57234;BME280;43090;52.604;13.318;2024-01-07T08:05:36;101686.78;;;-1.95;76.92
57234;BME280;43090;52.604;13.318;2024-01-07T08:08:37;101684.97;;;-1.76;76.58
57234;BME280;43090;52.604;13.318;2024-01-07T08:11:53;101687.53;;;-1.65;79.05
57234;BME280;43090;52.604;13.318;2024-01-07T08:14:36;101682.44;;;-2.02;79.65
57234;BME280;43090;52.604;13.318;2024-01-07T08:17:08;101696.34;;;-1.77;80.06
57234;BME280;43090;52.604;13.318;2024-01-07T08:23:19;101656.22;;;-2.07;81.14
57234;BME280;43090;52.604;13.318;2024-01-07T08:29:18;101675.44;;;-2.08;81.08
57234;BME280;43090;52.604;13.318;2024-01-07T08:32:35;101679.78;;;-1.91;80.56
57234;BME280;43090;52.604;13.318;2024-01-07T08:35:43;101683.16;;;-1.61;81.08
57234;BME280;43090;52.604;13.318;2024-01-07T08:38:13;101698.91;;;-1.64;81.76
57234;BME280;43090;52.604;13.318;2024-01-07T08:40:46;101691.84;;;-1.53;81.88
57234;BME280;43090;52.604;13.318;2024-01-07T08:43:17;101711.00;;;-1.36;81.72
57234;BME280;43090;52.604;13.318;2024-01-07T08:45:49;101676.06;;;-1.50;79.99
57234;BME280;43090;52.604;13.318;2024-01-07T08:48:46;101660.28;;;-1.47;79.30
57234;BME280;43090;52.604;13.318;2024-01-07T08:51:19;101668.09;;;-1.38;79.43
57234;BME280;43090;52.604;13.318;2024-01-07T08:53:54;101691.63;;;-1.19;80.00
57234;BME280;43090;52.604;13.318;2024-01-07T08:56:22;101700.38;;;-1.17;80.55
57234;BME280;43090;52.604;13.318;2024-01-07T08:58:54;101688.28;;;-1.41;79.93
57234;BME280;43090;52.604;13.318;2024-01-07T09:01:20;101702.25;;;-1.38;79.59
57234;BME280;43090;52.604;13.318;2024-01-07T09:03:47;101684.63;;;-1.23;81.28
57234;BME280;43090;52.604;13.318;2024-01-07T09:06:14;101697.91;;;-1.40;79.75
57234;BME280;43090;52.604;13.318;2024-01-07T09:08:40;101724.25;;;-1.54;81.63
57234;BME280;43090;52.604;13.318;2024-01-07T09:11:07;101713.66;;;-1.37;82.14
57234;BME280;43090;52.604;13.318;2024-01-07T09:13:37;101687.53;;;-1.68;80.90
57234;BME280;43090;52.604;13.318;2024-01-07T09:16:07;101691.88;;;-1.55;81.21
57234;BME280;43090;52.604;13.318;2024-01-07T09:18:35;101720.56;;;-1.22;81.00
57234;BME280;43090;52.604;13.318;2024-01-07T09:21:02;101730.00;;;-0.98;80.51
57234;BME280;43090;52.604;13.318;2024-01-07T09:23:29;101712.56;;;-1.07;80.66
57234;BME280;43090;52.604;13.318;2024-01-07T09:25:55;101733.59;;;-1.05;81.91
57234;BME280;43090;52.604;13.318;2024-01-07T09:28:22;101723.25;;;-1.31;81.13
57234;BME280;43090;52.604;13.318;2024-01-07T09:30:49;101714.59;;;-1.49;81.24
57234;BME280;43090;52.604;13.318;2024-01-07T09:33:15;101699.66;;;-1.42;80.73
57234;BME280;43090;52.604;13.318;2024-01-07T09:35:42;101693.50;;;-1.37;80.71
57234;BME280;43090;52.604;13.318;2024-01-07T09:38:10;101705.72;;;-1.29;79.93
57234;BME280;43090;52.604;13.318;2024-01-07T09:40:39;101697.91;;;-1.42;78.94
57234;BME280;43090;52.604;13.318;2024-01-07T09:43:06;101723.16;;;-1.19;79.45
57234;BME280;43090;52.604;13.318;2024-01-07T09:45:32;101707.41;;;-1.21;79.79
57234;BME280;43090;52.604;13.318;2024-01-07T09:47:59;101722.41;;;-1.38;81.11
57234;BME280;43090;52.604;13.318;2024-01-07T09:50:26;101718.06;;;-1.48;81.77
57234;BME280;43090;52.604;13.318;2024-01-07T09:52:56;101739.84;;;-1.22;81.09
57234;BME280;43090;52.604;13.318;2024-01-07T09:55:40;101743.41;;;-1.37;82.14
57234;BME280;43090;52.604;13.318;2024-01-07T09:58:13;101719.88;;;-1.58;81.48
57234;BME280;43090;52.604;13.318;2024-01-07T10:00:40;101727.66;;;-1.40;81.67
57234;BME280;43090;52.604;13.318;2024-01-07T10:03:06;101717.06;;;-1.21;82.23
57234;BME280;43090;52.604;13.318;2024-01-07T10:05:33;101734.56;;;-1.19;82.90
57234;BME280;43090;52.604;13.318;2024-01-07T10:08:00;101723.06;;;-1.04;83.17
57234;BME280;43090;52.604;13.318;2024-01-07T10:10:28;101727.38;;;-0.93;84.37
57234;BME280;43090;52.604;13.318;2024-01-07T10:12:55;101724.97;;;-1.27;83.44
57234;BME280;43090;52.604;13.318;2024-01-07T10:15:23;101721.44;;;-1.20;84.87
57234;BME280;43090;52.604;13.318;2024-01-07T10:17:54;101736.03;;;-0.80;83.87
57234;BME280;43090;52.604;13.318;2024-01-07T10:20:24;101715.91;;;-0.85;84.66
57234;BME280;43090;52.604;13.318;2024-01-07T10:22:50;101723.88;;;-0.95;83.10
57234;BME280;43090;52.604;13.318;2024-01-07T10:25:18;101716.19;;;-1.26;84.25
57234;BME280;43090;52.604;13.318;2024-01-07T10:27:45;101703.69;;;-0.92;85.76
57234;BME280;43090;52.604;13.318;2024-01-07T10:30:12;101715.00;;;-0.79;83.29
57234;BME280;43090;52.604;13.318;2024-01-07T10:32:41;101672.47;;;-1.37;84.11
57234;BME280;43090;52.604;13.318;2024-01-07T10:35:13;101684.50;;;-1.02;83.88
57234;BME280;43090;52.604;13.318;2024-01-07T10:37:41;101660.00;;;-1.07;83.18
57234;BME280;43090;52.604;13.318;2024-01-07T10:40:11;101690.00;;;-1.37;84.17
57234;BME280;43090;52.604;13.318;2024-01-07T10:42:40;101670.56;;;-1.14;83.91
57234;BME280;43090;52.604;13.318;2024-01-07T10:45:08;101673.78;;;-0.80;84.47
57234;BME280;43090;52.604;13.318;2024-01-07T10:47:36;101665.81;;;-0.71;83.79
57234;BME280;43090;52.604;13.318;2024-01-07T10:50:15;101697.56;;;-0.91;83.96
57234;BME280;43090;52.604;13.318;2024-01-07T10:52:49;101653.75;;;-0.92;84.64
57234;BME280;43090;52.604;13.318;2024-01-07T10:55:18;101678.25;;;-0.88;84.95
57234;BME280;43090;52.604;13.318;2024-01-07T10:57:47;101713.47;;;-1.14;82.73
57234;BME280;43090;52.604;13.318;2024-01-07T11:03:59;101697.34;;;-0.66;83.73
57234;BME280;43090;52.604;13.318;2024-01-07T11:10:17;101701.66;;;-0.59;82.88
57234;BME280;43090;52.604;13.318;2024-01-07T11:13:36;101701.84;;;-0.79;83.52
57234;BME280;43090;52.604;13.318;2024-01-07T11:16:09;101680.69;;;-0.63;83.13
57234;BME280;43090;52.604;13.318;2024-01-07T11:18:50;101685.00;;;-0.59;83.87
57234;BME280;43090;52.604;13.318;2024-01-07T11:21:21;101710.25;;;-0.38;84.12
57234;BME280;43090;52.604;13.318;2024-01-07T11:23:52;101709.41;;;-0.43;85.09
57234;BME280;43090;52.604;13.318;2024-01-07T11:26:22;101662.88;;;-0.40;83.39
57234;BME280;43090;52.604;13.318;2024-01-07T11:29:19;101667.25;;;-0.39;82.76
57234;BME280;43090;52.604;13.318;2024-01-07T11:31:46;101724.00;;;-0.11;82.34
57234;BME280;43090;52.604;13.318;2024-01-07T11:34:40;101707.19;;;0.01;83.81
57234;BME280;43090;52.604;13.318;2024-01-07T11:37:26;101702.03;;;-0.09;84.26
57234;BME280;43090;52.604;13.318;2024-01-07T11:40:07;101681.38;;;-0.46;85.39
57234;BME280;43090;52.604;13.318;2024-01-07T11:43:15;101670.78;;;-0.38;86.32
57234;BME280;43090;52.604;13.318;2024-01-07T11:46:07;101698.44;;;-0.02;85.96
57234;BME280;43090;52.604;13.318;2024-01-07T11:49:10;101656.06;;;-0.58;84.97
57234;BME280;43090;52.604;13.318;2024-01-07T11:51:47;101652.72;;;-0.74;85.07
57234;BME280;43090;52.604;13.318;2024-01-07T11:54:29;101691.59;;;-0.17;85.92
57234;BME280;43090;52.604;13.318;2024-01-07T11:57:15;101631.75;;;-0.83;87.90
57234;BME280;43090;52.604;13.318;2024-01-07T12:00:21;101680.41;;;-0.39;87.32
57234;BME280;43090;52.604;13.318;2024-01-07T12:03:15;101672.28;;;-0.15;86.58
57234;BME280;43090;52.604;13.318;2024-01-07T12:06:03;101633.25;;;-0.57;86.90
57234;BME280;43090;52.604;13.318;2024-01-07T12:15:45;101635.91;;;-0.59;88.03
57234;BME280;43090;52.604;13.318;2024-01-07T12:18:12;101625.66;;;-0.88;87.90
57234;BME280;43090;52.604;13.318;2024-01-07T12:20:39;101641.22;;;-0.67;88.72
57234;BME280;43090;52.604;13.318;2024-01-07T12:23:22;101630.81;;;-0.77;88.26
57234;BME280;43090;52.604;13.318;2024-01-07T12:25:55;101636.69;;;-0.52;87.86
57234;BME280;43090;52.604;13.318;2024-01-07T12:28:58;101623.50;;;-0.49;87.95
57234;BME280;43090;52.604;13.318;2024-01-07T12:31:40;101680.19;;;-0.17;87.04
57234;BME280;43090;52.604;13.318;2024-01-07T12:34:43;101678.50;;;-0.24;87.71
57234;BME280;43090;52.604;13.318;2024-01-07T12:44:50;101680.59;;;-0.57;89.58
57234;BME280;43090;52.604;13.318;2024-01-07T12:47:16;101696.09;;;-0.26;89.24
57234;BME280;43090;52.604;13.318;2024-01-07T12:49:43;101673.50;;;-0.47;89.51
57234;BME280;43090;52.604;13.318;2024-01-07T12:52:12;101674.16;;;-0.27;88.43
57234;BME280;43090;52.604;13.318;2024-01-07T12:54:52;101671.53;;;-0.28;88.60
57234;BME280;43090;52.604;13.318;2024-01-07T12:57:22;101680.19;;;-0.17;88.42
57234;BME280;43090;52.604;13.318;2024-01-07T13:00:26;101659.31;;;-0.32;88.93
57234;BME280;43090;52.604;13.318;2024-01-07T13:03:07;101684.50;;;-0.10;88.44
57234;BME280;43090;52.604;13.318;2024-01-07T13:05:50;101658.38;;;-0.28;88.29
57234;BME280;43090;52.604;13.318;2024-01-07T13:08:39;101708.25;;;-0.14;88.63
57234;BME280;43090;52.604;13.318;2024-01-07T13:11:35;101706.31;;;0.02;88.37
57234;BME280;43090;52.604;13.318;2024-01-07T13:14:40;101709.44;;;-0.45;88.36
57234;BME280;43090;52.604;13.318;2024-01-07T13:21:58;101671.25;;;-0.89;89.61
57234;BME280;43090;52.604;13.318;2024-01-07T13:24:52;101677.44;;;-0.96;89.29
57234;BME280;43090;52.604;13.318;2024-01-07T13:27:23;101676.47;;;-0.86;89.72
57234;BME280;43090;52.604;13.318;2024-01-07T13:29:50;101684.31;;;-0.80;89.68
57234;BME280;43090;52.604;13.318;2024-01-07T13:32:17;101686.78;;;-0.61;90.76
57234;BME280;43090;52.604;13.318;2024-01-07T13:34:45;101702.25;;;-0.29;90.63
57234;BME280;43090;52.604;13.318;2024-01-07T13:37:12;101698.75;;;-0.31;90.22
57234;BME280;43090;52.604;13.318;2024-01-07T13:39:39;101670.72;;;-0.35;90.06
57234;BME280;43090;52.604;13.318;2024-01-07T13:42:06;101688.94;;;-0.15;89.50
57234;BME280;43090;52.604;13.318;2024-01-07T13:44:33;101693.41;;;-0.22;90.26
57234;BME280;43090;52.604;13.318;2024-01-07T13:47:01;101694.94;;;-0.02;90.34
57234;BME280;43090;52.604;13.318;2024-01-07T13:49:28;101714.22;;;0.02;91.61
57234;BME280;43090;52.604;13.318;2024-01-07T13:51:55;101685.53;;;-0.23;90.99
57234;BME280;43090;52.604;13.318;2024-01-07T13:54:34;101704.88;;;-0.27;91.44
57234;BME280;43090;52.604;13.318;2024-01-07T13:57:02;101667.91;;;-0.17;90.36
57234;BME280;43090;52.604;13.318;2024-01-07T13:59:29;101708.13;;;-0.04;90.29
57234;BME280;43090;52.604;13.318;2024-01-07T14:01:56;101683.81;;;-0.27;91.00
57234;BME280;43090;52.604;13.318;2024-01-07T14:04:26;101676.75;;;-0.25;90.79
57234;BME280;43090;52.604;13.318;2024-01-07T14:06:56;101714.50;;;-0.26;90.96
57234;BME280;43090;52.604;13.318;2024-01-07T14:09:23;101725.84;;;-0.23;89.67